Gwynn Oak, Maryland
Current Conditions -  °F | °C
As of 6:54 AM on Friday 28 Nov 2014 (Local Time) from KBWI Reporting Station
Few Clouds Few Clouds  
Wind Chill: -5°   Ceiling: Unl
Heat Index: -1°   Visibility: 10mi
Dew Point: -6°   Wind: 10mph
Humidity: 69%   Direction: 270°W
Pressure: 30.24"   Gusts: NA
Location:  39.32°N, 76.73°W
Report Text: KBWI 281154Z 27009KT 10SM FEW050 M01/M06 A3024 RMK AO2 SLP242 T10061056 10017 21011 53018
Loading
Personal Weather Stations






























Interactive Weather Map New forecast layout! Learn more

10-Day Weather Forecast

Advertisements
Track Severe Weather on mobile